sensor_id;sensor_type;location;lat;lon;timestamp;temperature;humidity
65074;DHT22;52218;51.224;-2.328;2022-10-31T00:01:52;13.40;99.90
65074;DHT22;52218;51.224;-2.328;2022-10-31T00:05:34;13.40;99.90
65074;DHT22;52218;51.224;-2.328;2022-10-31T00:09:16;13.30;99.90
65074;DHT22;52218;51.224;-2.328;2022-10-31T00:12:57;13.30;99.90
65074;DHT22;52218;51.224;-2.328;2022-10-31T00:16:40;13.30;99.90
65074;DHT22;52218;51.224;-2.328;2022-10-31T00:20:24;13.30;99.90
65074;DHT22;52218;51.224;-2.328;2022-10-31T00:24:07;13.30;99.90
65074;DHT22;52218;51.224;-2.328;2022-10-31T00:27:49;13.30;99.90
65074;DHT22;52218;51.224;-2.328;2022-10-31T00:31:31;13.20;99.90
65074;DHT22;52218;51.224;-2.328;2022-10-31T00:35:12;13.20;99.90
65074;DHT22;52218;51.224;-2.328;2022-10-31T00:38:55;13.20;99.90
65074;DHT22;52218;51.224;-2.328;2022-10-31T00:42:37;13.10;99.90
65074;DHT22;52218;51.224;-2.328;2022-10-31T00:46:20;13.10;99.90
65074;DHT22;52218;51.224;-2.328;2022-10-31T00:50:03;13.10;99.90
65074;DHT22;52218;51.224;-2.328;2022-10-31T00:53:45;13.10;99.90
65074;DHT22;52218;51.224;-2.328;2022-10-31T00:57:27;13.10;99.90
65074;DHT22;52218;51.224;-2.328;2022-10-31T01:01:09;13.10;99.90
65074;DHT22;52218;51.224;-2.328;2022-10-31T01:04:51;13.00;99.90
65074;DHT22;52218;51.224;-2.328;2022-10-31T01:08:35;13.00;99.90
65074;DHT22;52218;51.224;-2.328;2022-10-31T01:12:17;13.00;99.90
65074;DHT22;52218;51.224;-2.328;2022-10-31T01:16:00;13.10;99.90
65074;DHT22;52218;51.224;-2.328;2022-10-31T01:19:42;13.10;99.90
65074;DHT22;52218;51.224;-2.328;2022-10-31T01:23:24;13.10;99.90
65074;DHT22;52218;51.224;-2.328;2022-10-31T01:27:06;13.10;99.90
65074;DHT22;52218;51.224;-2.328;2022-10-31T01:30:48;13.10;99.90
65074;DHT22;52218;51.224;-2.328;2022-10-31T01:34:30;13.10;99.90
65074;DHT22;52218;51.224;-2.328;2022-10-31T01:38:11;13.10;99.90
65074;DHT22;52218;51.224;-2.328;2022-10-31T01:41:54;13.10;99.90
65074;DHT22;52218;51.224;-2.328;2022-10-31T01:45:36;13.20;99.90
65074;DHT22;52218;51.224;-2.328;2022-10-31T01:49:24;13.20;99.90
65074;DHT22;52218;51.224;-2.328;2022-10-31T01:53:10;13.20;99.90
65074;DHT22;52218;51.224;-2.328;2022-10-31T01:56:55;13.20;99.90
65074;DHT22;52218;51.224;-2.328;2022-10-31T02:00:38;13.30;99.90
65074;DHT22;52218;51.224;-2.328;2022-10-31T02:04:23;13.20;99.90
65074;DHT22;52218;51.224;-2.328;2022-10-31T02:08:14;13.20;99.90
65074;DHT22;52218;51.224;-2.328;2022-10-31T02:11:58;13.30;99.90
65074;DHT22;52218;51.224;-2.328;2022-10-31T02:15:41;13.30;99.90
65074;DHT22;52218;51.224;-2.328;2022-10-31T02:39:44;13.50;99.90
65074;DHT22;52218;51.224;-2.328;2022-10-31T02:47:27;13.50;99.90
65074;DHT22;52218;51.224;-2.328;2022-10-31T02:51:11;13.50;99.90
65074;DHT22;52218;51.224;-2.328;2022-10-31T02:54:54;13.50;99.90
65074;DHT22;52218;51.224;-2.328;2022-10-31T02:58:39;13.40;99.90
65074;DHT22;52218;51.224;-2.328;2022-10-31T03:06:54;13.40;99.90
65074;DHT22;52218;51.224;-2.328;2022-10-31T03:10:46;13.40;99.90
65074;DHT22;52218;51.224;-2.328;2022-10-31T03:18:57;13.30;99.90
65074;DHT22;52218;51.224;-2.328;2022-10-31T03:22:42;13.40;99.90
65074;DHT22;52218;51.224;-2.328;2022-10-31T03:26:25;13.40;99.90
65074;DHT22;52218;51.224;-2.328;2022-10-31T03:30:08;13.50;99.90
65074;DHT22;52218;51.224;-2.328;2022-10-31T03:33:51;13.40;99.90
65074;DHT22;52218;51.224;-2.328;2022-10-31T03:37:35;13.50;99.90
65074;DHT22;52218;51.224;-2.328;2022-10-31T03:41:21;13.50;99.90
65074;DHT22;52218;51.224;-2.328;2022-10-31T03:45:19;13.60;99.90
65074;DHT22;52218;51.224;-2.328;2022-10-31T03:49:03;13.60;99.90
65074;DHT22;52218;51.224;-2.328;2022-10-31T03:53:00;13.60;99.90
65074;DHT22;52218;51.224;-2.328;2022-10-31T03:56:58;13.70;99.90
65074;DHT22;52218;51.224;-2.328;2022-10-31T04:00:44;13.70;99.90
65074;DHT22;52218;51.224;-2.328;2022-10-31T04:04:28;13.70;99.90
65074;DHT22;52218;51.224;-2.328;2022-10-31T04:08:16;13.70;99.90
65074;DHT22;52218;51.224;-2.328;2022-10-31T04:12:00;13.80;99.90
65074;DHT22;52218;51.224;-2.328;2022-10-31T04:15:45;13.80;99.90
65074;DHT22;52218;51.224;-2.328;2022-10-31T04:19:27;13.80;99.90
65074;DHT22;52218;51.224;-2.328;2022-10-31T04:23:19;13.90;99.90
65074;DHT22;52218;51.224;-2.328;2022-10-31T04:27:01;13.90;99.90
65074;DHT22;52218;51.224;-2.328;2022-10-31T04:30:43;14.00;99.90
65074;DHT22;52218;51.224;-2.328;2022-10-31T04:34:25;14.00;99.90
65074;DHT22;52218;51.224;-2.328;2022-10-31T04:38:07;14.00;99.90
65074;DHT22;52218;51.224;-2.328;2022-10-31T04:41:49;14.00;99.90
65074;DHT22;52218;51.224;-2.328;2022-10-31T04:45:31;14.00;99.90
65074;DHT22;52218;51.224;-2.328;2022-10-31T04:49:13;14.10;99.90
65074;DHT22;52218;51.224;-2.328;2022-10-31T04:52:55;14.10;99.90
65074;DHT22;52218;51.224;-2.328;2022-10-31T04:56:37;14.10;99.90
65074;DHT22;52218;51.224;-2.328;2022-10-31T05:00:20;14.10;99.90
65074;DHT22;52218;51.224;-2.328;2022-10-31T05:04:02;14.10;99.90
65074;DHT22;52218;51.224;-2.328;2022-10-31T05:07:46;14.10;99.90
65074;DHT22;52218;51.224;-2.328;2022-10-31T05:11:28;14.10;99.90
65074;DHT22;52218;51.224;-2.328;2022-10-31T05:15:10;14.00;99.90
65074;DHT22;52218;51.224;-2.328;2022-10-31T05:18:52;13.90;99.90
65074;DHT22;52218;51.224;-2.328;2022-10-31T05:22:34;13.90;99.90
65074;DHT22;52218;51.224;-2.328;2022-10-31T05:26:16;13.80;99.90
65074;DHT22;52218;51.224;-2.328;2022-10-31T05:29:58;13.80;99.90
65074;DHT22;52218;51.224;-2.328;2022-10-31T05:33:45;13.80;99.90
65074;DHT22;52218;51.224;-2.328;2022-10-31T05:37:26;13.90;99.90
65074;DHT22;52218;51.224;-2.328;2022-10-31T05:41:08;13.90;99.90
65074;DHT22;52218;51.224;-2.328;2022-10-31T05:44:51;13.90;99.90
65074;DHT22;52218;51.224;-2.328;2022-10-31T05:48:33;13.90;99.90
65074;DHT22;52218;51.224;-2.328;2022-10-31T05:52:15;13.90;99.90
65074;DHT22;52218;51.224;-2.328;2022-10-31T05:55:57;13.80;99.90
65074;DHT22;52218;51.224;-2.328;2022-10-31T05:59:38;13.80;99.90
65074;DHT22;52218;51.224;-2.328;2022-10-31T06:03:20;13.70;99.90
65074;DHT22;52218;51.224;-2.328;2022-10-31T06:07:02;13.70;99.90
65074;DHT22;52218;51.224;-2.328;2022-10-31T06:10:44;13.70;99.90
65074;DHT22;52218;51.224;-2.328;2022-10-31T06:14:26;13.70;99.90
65074;DHT22;52218;51.224;-2.328;2022-10-31T06:18:08;13.70;99.90
65074;DHT22;52218;51.224;-2.328;2022-10-31T06:21:50;13.70;99.90
65074;DHT22;52218;51.224;-2.328;2022-10-31T06:25:33;13.70;99.90
65074;DHT22;52218;51.224;-2.328;2022-10-31T06:29:15;13.70;99.90
65074;DHT22;52218;51.224;-2.328;2022-10-31T06:33:04;13.70;99.90
65074;DHT22;52218;51.224;-2.328;2022-10-31T06:36:46;13.60;99.90
65074;DHT22;52218;51.224;-2.328;2022-10-31T06:40:28;13.60;99.90
65074;DHT22;52218;51.224;-2.328;2022-10-31T06:44:10;13.50;99.90
65074;DHT22;52218;51.224;-2.328;2022-10-31T06:47:53;13.40;99.90
65074;DHT22;52218;51.224;-2.328;2022-10-31T06:51:55;13.40;99.90
65074;DHT22;52218;51.224;-2.328;2022-10-31T06:55:37;13.30;99.90
65074;DHT22;52218;51.224;-2.328;2022-10-31T06:59:19;13.30;99.90
65074;DHT22;52218;51.224;-2.328;2022-10-31T07:03:03;13.20;99.90
65074;DHT22;52218;51.224;-2.328;2022-10-31T07:06:45;13.10;99.90
65074;DHT22;52218;51.224;-2.328;2022-10-31T07:10:34;13.10;99.90
65074;DHT22;52218;51.224;-2.328;2022-10-31T07:14:21;13.10;99.90
65074;DHT22;52218;51.224;-2.328;2022-10-31T07:18:04;13.00;99.90
65074;DHT22;52218;51.224;-2.328;2022-10-31T07:21:46;13.00;99.90
65074;DHT22;52218;51.224;-2.328;2022-10-31T07:25:28;13.00;99.90
65074;DHT22;52218;51.224;-2.328;2022-10-31T07:29:10;12.90;99.90
65074;DHT22;52218;51.224;-2.328;2022-10-31T07:32:52;12.90;99.90
65074;DHT22;52218;51.224;-2.328;2022-10-31T07:36:34;12.90;99.90
65074;DHT22;52218;51.224;-2.328;2022-10-31T07:40:17;12.90;99.90
65074;DHT22;52218;51.224;-2.328;2022-10-31T07:43:59;13.00;99.90
65074;DHT22;52218;51.224;-2.328;2022-10-31T07:47:52;13.00;99.90
65074;DHT22;52218;51.224;-2.328;2022-10-31T07:51:34;13.00;99.90
65074;DHT22;52218;51.224;-2.328;2022-10-31T07:55:16;13.10;99.90
65074;DHT22;52218;51.224;-2.328;2022-10-31T07:58:58;13.10;99.90
65074;DHT22;52218;51.224;-2.328;2022-10-31T08:02:39;13.20;99.90
65074;DHT22;52218;51.224;-2.328;2022-10-31T08:06:21;13.30;99.90
65074;DHT22;52218;51.224;-2.328;2022-10-31T08:10:04;13.40;99.90
65074;DHT22;52218;51.224;-2.328;2022-10-31T08:13:46;13.50;99.90
65074;DHT22;52218;51.224;-2.328;2022-10-31T08:17:28;13.60;99.90
65074;DHT22;52218;51.224;-2.328;2022-10-31T08:21:11;13.70;99.90
65074;DHT22;52218;51.224;-2.328;2022-10-31T08:24:53;13.80;99.90
65074;DHT22;52218;51.224;-2.328;2022-10-31T08:28:35;14.00;99.90
65074;DHT22;52218;51.224;-2.328;2022-10-31T08:32:16;14.10;99.90
65074;DHT22;52218;51.224;-2.328;2022-10-31T08:35:58;14.30;99.90
65074;DHT22;52218;51.224;-2.328;2022-10-31T08:39:40;14.40;99.90
65074;DHT22;52218;51.224;-2.328;2022-10-31T08:43:22;14.50;99.90
65074;DHT22;52218;51.224;-2.328;2022-10-31T08:47:04;14.60;99.90
65074;DHT22;52218;51.224;-2.328;2022-10-31T08:50:47;14.70;99.90
65074;DHT22;52218;51.224;-2.328;2022-10-31T08:54:28;14.90;99.90
65074;DHT22;52218;51.224;-2.328;2022-10-31T08:58:13;15.00;99.90
65074;DHT22;52218;51.224;-2.328;2022-10-31T09:01:55;15.10;99.90
65074;DHT22;52218;51.224;-2.328;2022-10-31T09:05:37;15.30;99.90
65074;DHT22;52218;51.224;-2.328;2022-10-31T09:09:19;15.40;99.90
65074;DHT22;52218;51.224;-2.328;2022-10-31T09:13:13;15.60;99.90
65074;DHT22;52218;51.224;-2.328;2022-10-31T09:16:55;15.70;99.90
65074;DHT22;52218;51.224;-2.328;2022-10-31T09:20:38;15.90;99.90
65074;DHT22;52218;51.224;-2.328;2022-10-31T09:24:21;16.00;99.90
65074;DHT22;52218;51.224;-2.328;2022-10-31T09:28:05;16.10;99.90
65074;DHT22;52218;51.224;-2.328;2022-10-31T09:31:47;16.20;99.90
65074;DHT22;52218;51.224;-2.328;2022-10-31T09:35:29;16.30;99.90
65074;DHT22;52218;51.224;-2.328;2022-10-31T09:39:11;16.30;99.90
65074;DHT22;52218;51.224;-2.328;2022-10-31T09:51:11;16.30;99.90
65074;DHT22;52218;51.224;-2.328;2022-10-31T09:54:58;16.30;99.90
65074;DHT22;52218;51.224;-2.328;2022-10-31T09:58:46;16.30;99.90
65074;DHT22;52218;51.224;-2.328;2022-10-31T10:06:22;16.40;99.90
65074;DHT22;52218;51.224;-2.328;2022-10-31T10:11:02;16.60;99.90
65074;DHT22;52218;51.224;-2.328;2022-10-31T10:25:46;17.20;99.90
65074;DHT22;52218;51.224;-2.328;2022-10-31T10:30:26;17.90;99.90
65074;DHT22;52218;51.224;-2.328;2022-10-31T10:37:46;18.80;99.90
65074;DHT22;52218;51.224;-2.328;2022-10-31T10:41:31;18.90;99.90
65074;DHT22;52218;51.224;-2.328;2022-10-31T10:45:16;19.10;99.90
65074;DHT22;52218;51.224;-2.328;2022-10-31T10:49:29;19.10;99.90
65074;DHT22;52218;51.224;-2.328;2022-10-31T11:01:27;18.20;99.90
65074;DHT22;52218;51.224;-2.328;2022-10-31T11:05:58;18.10;99.90
65074;DHT22;52218;51.224;-2.328;2022-10-31T11:09:16;18.00;99.90
65074;DHT22;52218;51.224;-2.328;2022-10-31T11:16:50;18.40;99.90
65074;DHT22;52218;51.224;-2.328;2022-10-31T11:20:35;18.60;99.90
65074;DHT22;52218;51.224;-2.328;2022-10-31T11:24:22;19.00;99.90
65074;DHT22;52218;51.224;-2.328;2022-10-31T11:28:05;19.10;99.90
65074;DHT22;52218;51.224;-2.328;2022-10-31T11:31:50;19.00;99.90
65074;DHT22;52218;51.224;-2.328;2022-10-31T11:35:33;19.00;99.90
65074;DHT22;52218;51.224;-2.328;2022-10-31T11:39:23;19.00;99.90
65074;DHT22;52218;51.224;-2.328;2022-10-31T11:43:15;19.20;99.90
65074;DHT22;52218;51.224;-2.328;2022-10-31T11:47:00;19.70;99.90
65074;DHT22;52218;51.224;-2.328;2022-10-31T11:50:49;20.40;99.90
65074;DHT22;52218;51.224;-2.328;2022-10-31T11:54:53;20.70;99.90
65074;DHT22;52218;51.224;-2.328;2022-10-31T11:58:35;20.70;99.90
65074;DHT22;52218;51.224;-2.328;2022-10-31T12:02:18;20.80;99.90
65074;DHT22;52218;51.224;-2.328;2022-10-31T12:06:15;21.50;99.30
65074;DHT22;52218;51.224;-2.328;2022-10-31T12:09:59;22.60;97.50
65074;DHT22;52218;51.224;-2.328;2022-10-31T12:18:40;25.40;95.60
65074;DHT22;52218;51.224;-2.328;2022-10-31T12:22:06;26.50;91.80
65074;DHT22;52218;51.224;-2.328;2022-10-31T12:30:21;27.70;87.30
65074;DHT22;52218;51.224;-2.328;2022-10-31T12:38:17;27.90;92.60
65074;DHT22;52218;51.224;-2.328;2022-10-31T12:42:16;28.20;83.70
65074;DHT22;52218;51.224;-2.328;2022-10-31T12:46:00;28.30;80.80
65074;DHT22;52218;51.224;-2.328;2022-10-31T12:58:26;28.20;80.90
65074;DHT22;52218;51.224;-2.328;2022-10-31T13:06:18;27.90;80.90
65074;DHT22;52218;51.224;-2.328;2022-10-31T13:14:02;25.80;82.20
65074;DHT22;52218;51.224;-2.328;2022-10-31T13:17:50;24.70;84.00
65074;DHT22;52218;51.224;-2.328;2022-10-31T13:21:42;23.80;86.80
65074;DHT22;52218;51.224;-2.328;2022-10-31T13:25:33;23.50;89.30
65074;DHT22;52218;51.224;-2.328;2022-10-31T13:33:17;25.70;85.40
65074;DHT22;52218;51.224;-2.328;2022-10-31T13:41:33;24.90;85.40
65074;DHT22;52218;51.224;-2.328;2022-10-31T13:45:19;23.90;88.90
65074;DHT22;52218;51.224;-2.328;2022-10-31T13:49:02;23.10;89.40
65074;DHT22;52218;51.224;-2.328;2022-10-31T13:52:44;22.20;91.50
65074;DHT22;52218;51.224;-2.328;2022-10-31T13:56:32;21.60;92.40
65074;DHT22;52218;51.224;-2.328;2022-10-31T14:04:13;20.70;94.30
65074;DHT22;52218;51.224;-2.328;2022-10-31T14:08:17;20.40;94.80
65074;DHT22;52218;51.224;-2.328;2022-10-31T14:12:07;20.00;95.80
65074;DHT22;52218;51.224;-2.328;2022-10-31T14:15:58;19.70;96.80
65074;DHT22;52218;51.224;-2.328;2022-10-31T14:19:41;19.40;97.80
65074;DHT22;52218;51.224;-2.328;2022-10-31T14:23:38;19.10;98.40
65074;DHT22;52218;51.224;-2.328;2022-10-31T14:31:36;18.70;99.70
65074;DHT22;52218;51.224;-2.328;2022-10-31T14:35:20;18.50;99.90
65074;DHT22;52218;51.224;-2.328;2022-10-31T14:39:20;18.30;99.90
65074;DHT22;52218;51.224;-2.328;2022-10-31T14:43:16;18.00;99.90
65074;DHT22;52218;51.224;-2.328;2022-10-31T14:50:56;17.60;99.90
65074;DHT22;52218;51.224;-2.328;2022-10-31T14:54:39;17.30;99.90
65074;DHT22;52218;51.224;-2.328;2022-10-31T15:02:15;16.80;99.90
65074;DHT22;52218;51.224;-2.328;2022-10-31T15:06:05;16.60;99.90
65074;DHT22;52218;51.224;-2.328;2022-10-31T15:10:04;16.40;99.90
65074;DHT22;52218;51.224;-2.328;2022-10-31T15:13:49;16.20;99.90
65074;DHT22;52218;51.224;-2.328;2022-10-31T15:17:32;16.10;99.90
65074;DHT22;52218;51.224;-2.328;2022-10-31T15:21:18;16.00;99.90
65074;DHT22;52218;51.224;-2.328;2022-10-31T15:25:02;15.90;99.90
65074;DHT22;52218;51.224;-2.328;2022-10-31T15:28:44;15.80;99.90
65074;DHT22;52218;51.224;-2.328;2022-10-31T15:32:28;15.70;99.90
65074;DHT22;52218;51.224;-2.328;2022-10-31T15:36:24;15.70;99.90
65074;DHT22;52218;51.224;-2.328;2022-10-31T15:40:16;15.60;99.90
65074;DHT22;52218;51.224;-2.328;2022-10-31T15:48:15;15.40;99.90
65074;DHT22;52218;51.224;-2.328;2022-10-31T15:52:07;15.40;99.90
65074;DHT22;52218;51.224;-2.328;2022-10-31T15:55:57;15.30;99.90
65074;DHT22;52218;51.224;-2.328;2022-10-31T15:59:45;15.20;99.90
65074;DHT22;52218;51.224;-2.328;2022-10-31T16:03:30;15.20;99.90
65074;DHT22;52218;51.224;-2.328;2022-10-31T16:07:14;15.10;99.90
65074;DHT22;52218;51.224;-2.328;2022-10-31T16:14:50;15.00;99.90
65074;DHT22;52218;51.224;-2.328;2022-10-31T16:18:36;15.00;99.90
65074;DHT22;52218;51.224;-2.328;2022-10-31T16:22:22;14.90;99.90
65074;DHT22;52218;51.224;-2.328;2022-10-31T16:26:06;14.90;99.90
65074;DHT22;52218;51.224;-2.328;2022-10-31T16:29:48;14.80;99.90
65074;DHT22;52218;51.224;-2.328;2022-10-31T16:33:35;14.80;99.90
65074;DHT22;52218;51.224;-2.328;2022-10-31T16:37:18;14.80;99.90
65074;DHT22;52218;51.224;-2.328;2022-10-31T16:41:00;14.70;99.90
65074;DHT22;52218;51.224;-2.328;2022-10-31T16:44:44;14.70;99.90
65074;DHT22;52218;51.224;-2.328;2022-10-31T16:48:26;14.70;99.90
65074;DHT22;52218;51.224;-2.328;2022-10-31T16:52:07;14.70;99.90
65074;DHT22;52218;51.224;-2.328;2022-10-31T16:55:57;14.70;99.90
65074;DHT22;52218;51.224;-2.328;2022-10-31T16:59:39;14.70;99.90
65074;DHT22;52218;51.224;-2.328;2022-10-31T17:03:22;14.60;99.90
65074;DHT22;52218;51.224;-2.328;2022-10-31T17:07:04;14.60;99.90
65074;DHT22;52218;51.224;-2.328;2022-10-31T17:10:47;14.50;99.90
65074;DHT22;52218;51.224;-2.328;2022-10-31T17:14:29;14.50;99.90
65074;DHT22;52218;51.224;-2.328;2022-10-31T17:18:13;14.50;99.90
65074;DHT22;52218;51.224;-2.328;2022-10-31T17:21:55;14.40;99.90
65074;DHT22;52218;51.224;-2.328;2022-10-31T17:25:37;14.30;99.90
65074;DHT22;52218;51.224;-2.328;2022-10-31T17:29:20;14.30;99.90
65074;DHT22;52218;51.224;-2.328;2022-10-31T17:33:02;14.30;99.90
65074;DHT22;52218;51.224;-2.328;2022-10-31T17:36:49;14.30;99.90
65074;DHT22;52218;51.224;-2.328;2022-10-31T17:40:32;14.30;99.90
65074;DHT22;52218;51.224;-2.328;2022-10-31T17:44:14;14.20;99.90
65074;DHT22;52218;51.224;-2.328;2022-10-31T17:47:56;14.20;99.90
65074;DHT22;52218;51.224;-2.328;2022-10-31T17:51:38;14.10;99.90
65074;DHT22;52218;51.224;-2.328;2022-10-31T17:55:20;14.20;99.90
65074;DHT22;52218;51.224;-2.328;2022-10-31T17:59:02;14.20;99.90
65074;DHT22;52218;51.224;-2.328;2022-10-31T18:02:44;14.10;99.90
65074;DHT22;52218;51.224;-2.328;2022-10-31T18:06:26;14.10;99.90
65074;DHT22;52218;51.224;-2.328;2022-10-31T18:10:08;14.10;99.90
65074;DHT22;52218;51.224;-2.328;2022-10-31T18:13:55;14.20;99.90
65074;DHT22;52218;51.224;-2.328;2022-10-31T18:17:37;14.20;99.90
65074;DHT22;52218;51.224;-2.328;2022-10-31T18:21:22;14.20;99.90
65074;DHT22;52218;51.224;-2.328;2022-10-31T18:25:05;14.20;99.90
65074;DHT22;52218;51.224;-2.328;2022-10-31T18:28:47;14.30;99.90
65074;DHT22;52218;51.224;-2.328;2022-10-31T18:32:29;14.20;99.90
65074;DHT22;52218;51.224;-2.328;2022-10-31T18:36:11;14.20;99.90
65074;DHT22;52218;51.224;-2.328;2022-10-31T18:39:53;14.30;99.90
65074;DHT22;52218;51.224;-2.328;2022-10-31T18:43:35;14.30;99.90
65074;DHT22;52218;51.224;-2.328;2022-10-31T18:47:17;14.30;99.90
65074;DHT22;52218;51.224;-2.328;2022-10-31T18:51:07;14.30;99.90
65074;DHT22;52218;51.224;-2.328;2022-10-31T18:54:50;14.40;99.90
65074;DHT22;52218;51.224;-2.328;2022-10-31T18:58:32;14.40;99.90
65074;DHT22;52218;51.224;-2.328;2022-10-31T19:02:14;14.40;99.90
65074;DHT22;52218;51.224;-2.328;2022-10-31T19:05:56;14.50;99.90
65074;DHT22;52218;51.224;-2.328;2022-10-31T19:09:37;14.50;99.90
65074;DHT22;52218;51.224;-2.328;2022-10-31T19:13:19;14.50;99.90
65074;DHT22;52218;51.224;-2.328;2022-10-31T19:17:01;14.60;99.90
65074;DHT22;52218;51.224;-2.328;2022-10-31T19:20:43;14.60;99.90
65074;DHT22;52218;51.224;-2.328;2022-10-31T19:24:25;14.60;99.90
65074;DHT22;52218;51.224;-2.328;2022-10-31T19:28:07;14.70;99.90
65074;DHT22;52218;51.224;-2.328;2022-10-31T19:31:49;14.70;99.90
65074;DHT22;52218;51.224;-2.328;2022-10-31T19:35:31;14.70;99.90
65074;DHT22;52218;51.224;-2.328;2022-10-31T19:39:13;14.70;99.90
65074;DHT22;52218;51.224;-2.328;2022-10-31T19:42:57;14.70;99.90
65074;DHT22;52218;51.224;-2.328;2022-10-31T19:46:39;14.70;99.90
65074;DHT22;52218;51.224;-2.328;2022-10-31T19:50:40;14.70;99.90
65074;DHT22;52218;51.224;-2.328;2022-10-31T19:54:22;14.70;99.90
65074;DHT22;52218;51.224;-2.328;2022-10-31T19:58:04;14.70;99.90
65074;DHT22;52218;51.224;-2.328;2022-10-31T20:01:45;14.60;99.90
65074;DHT22;52218;51.224;-2.328;2022-10-31T20:05:27;14.60;99.90
65074;DHT22;52218;51.224;-2.328;2022-10-31T20:09:12;14.60;99.90
65074;DHT22;52218;51.224;-2.328;2022-10-31T20:12:54;14.60;99.90
65074;DHT22;52218;51.224;-2.328;2022-10-31T20:16:36;14.60;99.90
65074;DHT22;52218;51.224;-2.328;2022-10-31T20:20:18;14.60;99.90
65074;DHT22;52218;51.224;-2.328;2022-10-31T20:24:05;14.60;99.90
65074;DHT22;52218;51.224;-2.328;2022-10-31T20:27:47;14.60;99.90
65074;DHT22;52218;51.224;-2.328;2022-10-31T20:31:32;14.60;99.90
65074;DHT22;52218;51.224;-2.328;2022-10-31T20:35:15;14.60;99.90
65074;DHT22;52218;51.224;-2.328;2022-10-31T20:38:57;14.60;99.90
65074;DHT22;52218;51.224;-2.328;2022-10-31T20:42:39;14.50;99.90
65074;DHT22;52218;51.224;-2.328;2022-10-31T20:46:23;14.50;99.90
65074;DHT22;52218;51.224;-2.328;2022-10-31T20:50:06;14.50;99.90
65074;DHT22;52218;51.224;-2.328;2022-10-31T20:53:49;14.50;99.90
65074;DHT22;52218;51.224;-2.328;2022-10-31T20:57:31;14.50;99.90
65074;DHT22;52218;51.224;-2.328;2022-10-31T21:01:16;14.40;99.90
65074;DHT22;52218;51.224;-2.328;2022-10-31T21:04:58;14.40;99.90
65074;DHT22;52218;51.224;-2.328;2022-10-31T21:08:41;14.20;99.90
65074;DHT22;52218;51.224;-2.328;2022-10-31T21:12:23;14.10;99.90
65074;DHT22;52218;51.224;-2.328;2022-10-31T21:16:10;14.00;99.90
65074;DHT22;52218;51.224;-2.328;2022-10-31T21:19:52;13.90;99.90
65074;DHT22;52218;51.224;-2.328;2022-10-31T21:23:34;13.70;99.90
65074;DHT22;52218;51.224;-2.328;2022-10-31T21:27:16;13.60;99.90
65074;DHT22;52218;51.224;-2.328;2022-10-31T21:30:58;13.50;99.90
65074;DHT22;52218;51.224;-2.328;2022-10-31T21:34:40;13.40;99.90
65074;DHT22;52218;51.224;-2.328;2022-10-31T21:38:22;13.30;99.90
65074;DHT22;52218;51.224;-2.328;2022-10-31T21:42:04;13.30;99.90
65074;DHT22;52218;51.224;-2.328;2022-10-31T21:45:46;13.30;99.90
65074;DHT22;52218;51.224;-2.328;2022-10-31T21:49:28;13.30;99.90
65074;DHT22;52218;51.224;-2.328;2022-10-31T21:53:10;13.30;99.90
65074;DHT22;52218;51.224;-2.328;2022-10-31T21:57:10;13.20;99.90
65074;DHT22;52218;51.224;-2.328;2022-10-31T22:00:52;13.10;99.90
65074;DHT22;52218;51.224;-2.328;2022-10-31T22:04:34;13.10;99.90
65074;DHT22;52218;51.224;-2.328;2022-10-31T22:08:16;13.10;99.90
65074;DHT22;52218;51.224;-2.328;2022-10-31T22:11:58;13.00;99.90
65074;DHT22;52218;51.224;-2.328;2022-10-31T22:15:41;13.00;99.90
65074;DHT22;52218;51.224;-2.328;2022-10-31T22:19:23;13.00;99.90
65074;DHT22;52218;51.224;-2.328;2022-10-31T22:23:05;13.00;99.90
65074;DHT22;52218;51.224;-2.328;2022-10-31T22:26:48;12.90;99.90
65074;DHT22;52218;51.224;-2.328;2022-10-31T22:30:30;12.80;99.90
65074;DHT22;52218;51.224;-2.328;2022-10-31T22:34:13;12.70;99.90
65074;DHT22;52218;51.224;-2.328;2022-10-31T22:37:55;12.60;99.90
65074;DHT22;52218;51.224;-2.328;2022-10-31T22:41:37;12.50;99.90
65074;DHT22;52218;51.224;-2.328;2022-10-31T22:45:19;12.30;99.90
65074;DHT22;52218;51.224;-2.328;2022-10-31T22:49:07;12.30;99.90
65074;DHT22;52218;51.224;-2.328;2022-10-31T22:52:49;12.20;99.90
65074;DHT22;52218;51.224;-2.328;2022-10-31T22:56:33;12.10;99.90
65074;DHT22;52218;51.224;-2.328;2022-10-31T23:00:15;12.00;99.90
65074;DHT22;52218;51.224;-2.328;2022-10-31T23:03:57;12.00;99.90
65074;DHT22;52218;51.224;-2.328;2022-10-31T23:07:39;11.90;99.90
65074;DHT22;52218;51.224;-2.328;2022-10-31T23:11:30;11.90;99.90
65074;DHT22;52218;51.224;-2.328;2022-10-31T23:15:13;11.90;99.90
65074;DHT22;52218;51.224;-2.328;2022-10-31T23:18:54;11.90;99.90
65074;DHT22;52218;51.224;-2.328;2022-10-31T23:22:36;11.80;99.90
65074;DHT22;52218;51.224;-2.328;2022-10-31T23:26:18;11.90;99.90
65074;DHT22;52218;51.224;-2.328;2022-10-31T23:30:19;11.90;99.90
65074;DHT22;52218;51.224;-2.328;2022-10-31T23:34:00;11.90;99.90
65074;DHT22;52218;51.224;-2.328;2022-10-31T23:37:42;11.90;99.90
65074;DHT22;52218;51.224;-2.328;2022-10-31T23:41:24;11.90;99.90
65074;DHT22;52218;51.224;-2.328;2022-10-31T23:45:06;11.90;99.90
65074;DHT22;52218;51.224;-2.328;2022-10-31T23:48:49;11.80;99.90
65074;DHT22;52218;51.224;-2.328;2022-10-31T23:52:34;11.90;99.90
65074;DHT22;52218;51.224;-2.328;2022-10-31T23:56:16;11.90;99.90
65074;DHT22;52218;51.224;-2.328;2022-10-31T23:59:57;11.90;99.90
